createdAt,value
2022-12-22T00:03:30.915Z,33.17
2022-12-22T00:07:59.127Z,35.83
2022-12-22T00:12:41.305Z,39.97
2022-12-22T00:17:04.387Z,38.20
2022-12-22T00:21:43.946Z,36.10
2022-12-22T00:26:06.327Z,37.05
2022-12-22T00:30:35.190Z,32.58
2022-12-22T00:35:03.976Z,34.70
2022-12-22T00:44:09.383Z,35.40
2022-12-22T00:48:41.209Z,37.55
2022-12-22T00:53:03.948Z,30.55
2022-12-22T00:57:34.230Z,31.83
2022-12-22T01:01:57.072Z,30.80
2022-12-22T01:06:23.100Z,29.60
2022-12-22T01:10:45.894Z,28.15
2022-12-22T01:15:15.466Z,30.45
2022-12-22T01:19:37.138Z,28.45
2022-12-22T01:24:04.175Z,25.13
2022-12-22T01:28:44.131Z,21.60
2022-12-22T01:33:09.958Z,21.13
2022-12-22T01:37:31.839Z,22.90
2022-12-22T01:41:55.020Z,20.13
2022-12-22T01:46:16.614Z,26.83
2022-12-22T01:50:49.138Z,31.30
2022-12-22T01:55:11.740Z,30.38
2022-12-22T01:59:38.286Z,28.30
2022-12-22T02:04:08.222Z,31.45
2022-12-22T02:08:40.094Z,26.38
2022-12-22T02:13:30.656Z,29.98
2022-12-22T02:17:55.301Z,28.75
2022-12-22T02:22:34.350Z,31.58
2022-12-22T02:27:11.665Z,29.70
2022-12-22T02:31:33.883Z,28.90
2022-12-22T02:36:18.797Z,29.02
2022-12-22T02:41:01.816Z,30.05
2022-12-22T02:45:45.977Z,31.15
2022-12-22T02:50:16.428Z,30.40
2022-12-22T02:59:19.382Z,32.17
2022-12-22T03:03:43.182Z,29.48
2022-12-22T03:08:08.896Z,27.10
2022-12-22T03:12:31.749Z,27.30
2022-12-22T03:16:53.957Z,27.90
2022-12-22T03:21:16.639Z,31.52
2022-12-22T03:25:43.691Z,29.10
2022-12-22T03:29:52.415Z,29.92
2022-12-22T03:33:55.630Z,29.50
2022-12-22T03:38:03.390Z,26.70
2022-12-22T03:42:25.600Z,31.38
2022-12-22T03:46:31.116Z,29.38
2022-12-22T03:50:37.934Z,27.20
2022-12-22T03:54:48.207Z,28.45
2022-12-22T03:58:51.579Z,27.40
2022-12-22T04:03:02.162Z,30.92
2022-12-22T04:07:09.717Z,28.85
2022-12-22T04:11:37.776Z,31.00
2022-12-22T04:15:40.712Z,30.48
2022-12-22T04:19:45.229Z,28.55
2022-12-22T04:23:53.896Z,29.63
2022-12-22T04:27:59.652Z,27.98
2022-12-22T04:32:02.990Z,26.95
2022-12-22T04:36:07.217Z,28.83
2022-12-22T04:40:15.552Z,28.30
2022-12-22T04:44:20.105Z,27.13
2022-12-22T04:48:26.849Z,25.98
2022-12-22T04:52:30.126Z,28.15
2022-12-22T04:56:33.836Z,28.63
2022-12-22T05:00:38.005Z,28.00
2022-12-22T05:04:43.022Z,27.45
2022-12-22T05:08:50.508Z,28.42
2022-12-22T05:13:08.963Z,25.73
2022-12-22T05:17:24.725Z,26.48
2022-12-22T05:21:27.662Z,28.63
2022-12-22T05:25:35.376Z,27.30
2022-12-22T05:29:40.830Z,26.83
2022-12-22T05:33:47.185Z,26.67
2022-12-22T05:37:49.936Z,23.25
2022-12-22T05:41:52.759Z,25.88
2022-12-22T05:45:55.784Z,26.83
2022-12-22T05:49:58.544Z,26.98
2022-12-22T05:54:02.490Z,23.98
2022-12-22T05:58:06.494Z,25.05
2022-12-22T06:02:10.675Z,25.17
2022-12-22T06:06:14.560Z,28.25
2022-12-22T06:10:17.449Z,23.92
2022-12-22T06:14:20.351Z,26.55
2022-12-22T06:18:23.168Z,24.88
2022-12-22T06:22:30.851Z,25.15
2022-12-22T06:26:33.908Z,26.15
2022-12-22T06:30:36.601Z,27.38
2022-12-22T06:34:40.193Z,27.77
2022-12-22T06:38:43.012Z,24.75
2022-12-22T06:43:08.787Z,26.65
2022-12-22T06:47:12.488Z,27.65
2022-12-22T06:51:15.244Z,26.48
2022-12-22T06:55:18.117Z,27.83
2022-12-22T06:59:22.644Z,27.20
2022-12-22T07:03:25.661Z,27.70
2022-12-22T07:07:28.626Z,25.90
2022-12-22T07:11:31.467Z,28.98
2022-12-22T07:15:34.232Z,26.30
2022-12-22T07:19:37.025Z,26.10
2022-12-22T07:23:40.821Z,24.67
2022-12-22T07:27:43.658Z,26.50
2022-12-22T07:31:46.824Z,29.90
2022-12-22T07:36:13.966Z,28.65
2022-12-22T07:40:17.040Z,30.27
2022-12-22T07:44:38.433Z,27.23
2022-12-22T07:49:18.316Z,23.48
2022-12-22T07:53:40.200Z,24.98
2022-12-22T07:58:01.893Z,29.25
2022-12-22T08:02:23.107Z,26.17
2022-12-22T08:06:44.904Z,27.13
2022-12-22T08:11:06.573Z,28.90
2022-12-22T08:15:28.283Z,28.08
2022-12-22T08:19:50.779Z,28.83
2022-12-22T08:24:13.919Z,27.30
2022-12-22T08:28:18.116Z,28.85
2022-12-22T08:32:40.865Z,30.17
2022-12-22T08:36:49.190Z,30.60
2022-12-22T08:41:14.189Z,32.58
2022-12-22T08:45:17.099Z,38.17
2022-12-22T08:49:20.332Z,31.25
2022-12-22T08:53:54.010Z,35.42
2022-12-22T08:57:55.807Z,33.20
2022-12-22T09:02:05.224Z,30.42
2022-12-22T09:06:09.860Z,30.10
2022-12-22T09:10:12.983Z,31.42
2022-12-22T09:14:17.961Z,27.50
2022-12-22T09:18:20.722Z,32.13
2022-12-22T09:22:28.451Z,32.05
2022-12-22T09:26:32.805Z,33.13
2022-12-22T09:30:35.510Z,33.90
2022-12-22T09:34:38.168Z,32.97
2022-12-22T09:38:41.893Z,32.72
2022-12-22T09:42:44.591Z,31.08
2022-12-22T09:47:15.554Z,31.63
2022-12-22T09:51:26.411Z,32.25
2022-12-22T09:56:46.885Z,35.75
2022-12-22T10:01:03.374Z,31.58
2022-12-22T10:05:28.573Z,32.35
2022-12-22T10:14:20.578Z,33.58
2022-12-22T10:31:17.466Z,35.17
2022-12-22T10:35:20.559Z,34.17
2022-12-22T10:39:34.094Z,33.92
2022-12-22T10:43:40.264Z,34.47
2022-12-22T10:47:53.467Z,35.60
2022-12-22T10:52:22.512Z,29.75
2022-12-22T10:56:40.178Z,30.52
2022-12-22T11:01:51.322Z,31.52
2022-12-22T11:06:25.551Z,31.15
2022-12-22T11:10:38.724Z,31.08
2022-12-22T11:15:24.902Z,33.65
2022-12-22T11:20:39.997Z,32.33
2022-12-22T11:25:13.982Z,29.88
2022-12-22T11:30:04.695Z,29.20
2022-12-22T11:34:38.678Z,30.25
2022-12-22T11:38:50.324Z,31.00
2022-12-22T11:43:15.131Z,30.52
2022-12-22T11:47:38.845Z,30.50
2022-12-22T11:52:10.803Z,32.88
2022-12-22T11:56:41.156Z,32.88
2022-12-22T12:05:26.810Z,30.98
2022-12-22T12:09:53.762Z,32.25
2022-12-22T12:14:36.599Z,27.73
2022-12-22T12:19:00.798Z,29.30
2022-12-22T12:23:35.227Z,29.52
2022-12-22T12:27:59.324Z,31.00
2022-12-22T12:32:18.787Z,28.95
2022-12-22T12:36:44.009Z,27.27
2022-12-22T12:41:05.867Z,25.30
2022-12-22T12:45:41.488Z,30.73
2022-12-22T12:50:04.033Z,29.30
2022-12-22T12:54:31.900Z,28.15
2022-12-22T12:58:40.752Z,32.83
2022-12-22T13:02:57.301Z,32.25
2022-12-22T13:07:00.321Z,33.13
2022-12-22T13:11:03.087Z,33.50
2022-12-22T13:15:36.340Z,31.90
2022-12-22T13:19:39.218Z,30.92
2022-12-22T13:24:14.951Z,30.80
2022-12-22T13:28:16.323Z,30.30
2022-12-22T13:32:33.814Z,29.40
2022-12-22T13:36:37.404Z,37.47
2022-12-22T13:40:43.295Z,40.45
2022-12-22T13:44:47.440Z,33.63
2022-12-22T13:48:53.085Z,34.35
2022-12-22T13:52:57.415Z,36.67
2022-12-22T13:57:02.840Z,36.00
2022-12-22T14:01:11.859Z,32.97
2022-12-22T14:05:15.724Z,33.42
2022-12-22T14:09:28.105Z,33.40
2022-12-22T14:13:32.893Z,33.42
2022-12-22T14:17:44.737Z,34.22
2022-12-22T14:22:08.366Z,30.60
2022-12-22T14:26:24.486Z,17.40
2022-12-22T14:30:37.793Z,11.50
2022-12-22T14:34:41.718Z,10.45
2022-12-22T14:38:49.412Z,8.80
2022-12-22T14:42:52.212Z,9.70
2022-12-22T14:47:23.359Z,10.82
2022-12-22T14:51:27.789Z,24.85
2022-12-22T14:55:36.505Z,29.42
2022-12-22T14:59:39.262Z,39.95
2022-12-22T15:03:43.108Z,16.65
2022-12-22T15:08:05.553Z,16.63
2022-12-22T15:12:20.704Z,16.42
2022-12-22T15:16:24.482Z,16.75
2022-12-22T15:20:33.692Z,20.70
2022-12-22T15:24:44.455Z,19.98
2022-12-22T15:28:48.676Z,22.02
2022-12-22T15:32:51.400Z,21.50
2022-12-22T15:36:54.504Z,22.05
2022-12-22T15:40:57.287Z,24.88
2022-12-22T15:45:00.433Z,20.85
2022-12-22T15:49:03.620Z,21.85
2022-12-22T15:53:09.266Z,19.58
2022-12-22T15:57:14.362Z,24.67
2022-12-22T16:01:17.293Z,26.13
2022-12-22T16:05:20.541Z,39.50
2022-12-22T16:09:29.140Z,25.73
2022-12-22T16:13:33.151Z,29.05
2022-12-22T16:17:36.629Z,31.15
2022-12-22T16:21:40.431Z,27.15
2022-12-22T16:25:45.853Z,28.88
2022-12-22T16:29:53.069Z,29.17
2022-12-22T16:33:56.773Z,30.27
2022-12-22T16:38:00.566Z,28.40
2022-12-22T16:42:03.564Z,25.20
2022-12-22T16:46:09.899Z,27.08
2022-12-22T16:50:32.237Z,30.17
2022-12-22T16:54:35.161Z,29.50
2022-12-22T16:58:38.083Z,28.65
2022-12-22T17:02:41.356Z,35.95
2022-12-22T17:06:47.179Z,33.17
2022-12-22T17:10:52.609Z,35.40
2022-12-22T17:14:58.422Z,35.08
2022-12-22T17:19:01.237Z,30.50
2022-12-22T17:23:04.437Z,31.75
2022-12-22T17:27:08.717Z,30.77
2022-12-22T17:31:16.751Z,36.22
2022-12-22T17:35:25.745Z,36.92
2022-12-22T17:39:28.628Z,34.95
2022-12-22T17:43:32.560Z,36.88
2022-12-22T17:47:42.429Z,37.05
2022-12-22T17:51:46.167Z,43.78
2022-12-22T17:56:08.963Z,38.33
2022-12-22T18:00:18.396Z,44.33
2022-12-22T18:04:22.244Z,37.47
2022-12-22T18:08:25.399Z,38.50
2022-12-22T18:12:30.048Z,42.75
2022-12-22T18:16:32.896Z,44.30
2022-12-22T18:20:35.937Z,42.38
2022-12-22T18:24:38.758Z,37.03
2022-12-22T18:28:41.834Z,38.70
2022-12-22T18:32:44.786Z,38.53
2022-12-22T18:36:48.818Z,35.08
2022-12-22T18:40:51.939Z,29.02
2022-12-22T18:44:54.685Z,29.17
2022-12-22T18:49:01.918Z,28.00
2022-12-22T18:53:24.599Z,29.17
2022-12-22T18:57:27.427Z,29.33
2022-12-22T19:01:30.475Z,31.63
2022-12-22T19:05:33.929Z,33.63
2022-12-22T19:09:39.205Z,31.65
2022-12-22T19:13:46.837Z,32.97
2022-12-22T19:17:51.151Z,32.75
2022-12-22T19:21:54.900Z,33.20
2022-12-22T19:26:08.403Z,36.33
2022-12-22T19:30:19.415Z,38.00
2022-12-22T19:34:22.452Z,38.75
2022-12-22T19:38:30.653Z,42.58
2022-12-22T19:42:35.899Z,38.83
2022-12-22T19:46:38.812Z,32.75
2022-12-22T19:50:41.603Z,36.97
2022-12-22T19:54:45.730Z,31.52
2022-12-22T19:58:48.833Z,30.60
2022-12-22T20:02:54.849Z,29.98
2022-12-22T20:06:57.743Z,27.55
2022-12-22T20:11:00.883Z,28.58
2022-12-22T20:15:21.530Z,32.65
2022-12-22T20:19:24.200Z,35.85
2022-12-22T20:23:29.985Z,38.15
2022-12-22T20:27:35.660Z,41.63
2022-12-22T20:31:39.184Z,38.45
2022-12-22T20:35:43.881Z,37.22
2022-12-22T20:39:47.013Z,34.10
2022-12-22T20:43:50.039Z,34.13
2022-12-22T20:47:54.375Z,32.10
2022-12-22T20:51:58.150Z,31.88
2022-12-22T20:56:01.716Z,24.90
2022-12-22T21:00:05.346Z,21.63
2022-12-22T21:04:08.282Z,22.88
2022-12-22T21:08:20.549Z,40.38
2022-12-22T21:12:23.991Z,33.10
2022-12-22T21:16:30.006Z,31.40
2022-12-22T21:20:33.570Z,31.30
2022-12-22T21:24:37.668Z,34.53
2022-12-22T21:28:40.504Z,31.80
2022-12-22T21:32:43.399Z,20.98
2022-12-22T21:36:48.490Z,15.18
2022-12-22T21:40:51.495Z,50.83
2022-12-22T21:44:54.697Z,41.42
2022-12-22T21:48:57.449Z,39.17
2022-12-22T21:53:00.361Z,43.75
2022-12-22T21:57:03.634Z,42.42
2022-12-22T22:01:16.883Z,42.95
2022-12-22T22:05:33.743Z,43.58
2022-12-22T22:09:38.260Z,55.72
2022-12-22T22:13:41.187Z,46.78
2022-12-22T22:17:45.496Z,47.75
2022-12-22T22:21:49.122Z,49.63
2022-12-22T22:25:59.500Z,53.25
2022-12-22T22:30:02.375Z,59.17
